createdAt,value
2022-10-01T00:00:56.654Z,9.32
2022-10-01T00:03:24.677Z,9.30
2022-10-01T00:06:07.315Z,9.30
2022-10-01T00:08:34.052Z,9.27
2022-10-01T00:11:01.688Z,9.28
2022-10-01T00:13:30.365Z,9.28
2022-10-01T00:15:57.052Z,9.33
2022-10-01T00:18:23.480Z,9.33
2022-10-01T00:20:49.908Z,9.31
2022-10-01T00:23:16.600Z,9.23
2022-10-01T00:25:43.694Z,9.28
2022-10-01T00:28:12.066Z,9.29
2022-10-01T00:30:40.493Z,9.29
2022-10-01T00:33:07.149Z,9.32
2022-10-01T00:35:33.567Z,9.33
2022-10-01T00:38:00.182Z,9.33
2022-10-01T00:40:26.650Z,9.33
2022-10-01T00:42:53.055Z,9.37
2022-10-01T00:45:19.520Z,9.42
2022-10-01T00:47:52.621Z,9.38
2022-10-01T00:50:34.957Z,9.37
2022-10-01T00:53:06.425Z,9.38
2022-10-01T00:55:38.292Z,9.41
2022-10-01T00:58:05.180Z,9.36
2022-10-01T01:00:32.159Z,9.35
2022-10-01T01:02:58.901Z,9.35
2022-10-01T01:05:25.417Z,9.35
2022-10-01T01:07:53.266Z,9.37
2022-10-01T01:10:30.989Z,9.39
2022-10-01T01:13:24.073Z,9.34
2022-10-01T01:16:24.687Z,9.35
2022-10-01T01:19:04.157Z,9.33
2022-10-01T01:21:44.166Z,9.25
2022-10-01T01:24:29.021Z,9.23
2022-10-01T01:27:06.394Z,9.20
2022-10-01T01:29:46.553Z,9.20
2022-10-01T01:32:18.454Z,9.22
2022-10-01T01:34:46.987Z,9.21
2022-10-01T01:37:15.307Z,9.15
2022-10-01T01:39:45.240Z,9.08
2022-10-01T01:42:16.151Z,9.15
2022-10-01T01:44:45.762Z,9.15
2022-10-01T01:47:13.037Z,9.14
2022-10-01T01:49:39.956Z,9.09
2022-10-01T01:52:15.196Z,9.06
2022-10-01T01:54:49.738Z,9.03
2022-10-01T01:57:18.144Z,9.11
2022-10-01T01:59:45.668Z,9.07
2022-10-01T02:02:15.074Z,9.07
2022-10-01T02:04:48.859Z,9.09
2022-10-01T02:07:28.647Z,9.00
2022-10-01T02:09:59.973Z,9.04
2022-10-01T02:12:54.172Z,9.04
2022-10-01T02:15:48.746Z,8.99
2022-10-01T02:18:44.365Z,8.92
2022-10-01T02:21:21.810Z,8.93
2022-10-01T02:24:32.374Z,8.94
2022-10-01T02:27:00.511Z,8.97
2022-10-01T02:29:27.997Z,8.91
2022-10-01T02:31:55.716Z,8.85
2022-10-01T02:34:24.913Z,8.81
2022-10-01T02:36:51.909Z,8.82
2022-10-01T02:39:19.178Z,8.82
2022-10-01T02:41:48.204Z,8.78
2022-10-01T02:44:21.250Z,8.77
2022-10-01T02:47:07.866Z,8.77
2022-10-01T02:49:35.865Z,8.73
2022-10-01T02:52:31.437Z,8.72
2022-10-01T02:55:07.310Z,8.73
2022-10-01T02:57:33.990Z,8.76
2022-10-01T03:00:04.116Z,8.77
2022-10-01T03:02:31.736Z,8.80
2022-10-01T03:04:58.893Z,8.81
2022-10-01T03:07:26.312Z,8.90
2022-10-01T03:09:52.837Z,8.98
2022-10-01T03:12:19.315Z,8.83
2022-10-01T03:14:46.846Z,8.83
2022-10-01T03:17:13.873Z,8.86
2022-10-01T03:19:40.347Z,8.84
2022-10-01T03:22:07.532Z,8.95
2022-10-01T03:24:34.340Z,8.88
2022-10-01T03:27:01.339Z,8.85
2022-10-01T03:29:27.822Z,8.83
2022-10-01T03:31:54.840Z,8.81
2022-10-01T03:34:21.866Z,8.78
2022-10-01T03:36:48.818Z,8.76
2022-10-01T03:39:15.387Z,8.74
2022-10-01T03:41:41.893Z,8.72
2022-10-01T03:44:08.571Z,8.64
2022-10-01T03:46:34.978Z,8.63
2022-10-01T03:49:01.655Z,8.53
2022-10-01T03:51:28.675Z,8.44
2022-10-01T03:53:56.505Z,8.43
2022-10-01T03:56:23.477Z,8.38
2022-10-01T03:58:50.343Z,8.35
2022-10-01T04:01:17.276Z,8.24
2022-10-01T04:03:43.913Z,8.15
2022-10-01T04:06:11.354Z,8.10
2022-10-01T04:08:38.703Z,8.07
2022-10-01T04:11:06.357Z,8.03
2022-10-01T04:13:33.236Z,7.97
2022-10-01T04:15:59.759Z,7.95
2022-10-01T04:18:26.461Z,7.94
2022-10-01T04:20:52.855Z,7.90
2022-10-01T04:23:19.328Z,7.89
2022-10-01T04:25:45.888Z,7.85
2022-10-01T04:28:13.209Z,7.83
2022-10-01T04:30:41.443Z,7.74
2022-10-01T04:33:09.805Z,7.67
2022-10-01T04:35:37.024Z,7.68
2022-10-01T04:38:06.441Z,7.64
2022-10-01T04:40:35.360Z,7.62
2022-10-01T04:43:03.073Z,7.56
2022-10-01T04:45:29.616Z,7.54
2022-10-01T04:47:56.309Z,7.54
2022-10-01T04:50:24.848Z,7.55
2022-10-01T04:52:51.809Z,7.52
2022-10-01T04:55:20.050Z,7.50
2022-10-01T04:57:46.696Z,7.47
2022-10-01T05:00:15.935Z,7.45
2022-10-01T05:02:46.487Z,7.40
2022-10-01T05:05:13.212Z,7.35
2022-10-01T05:07:40.392Z,7.36
2022-10-01T05:10:12.674Z,7.35
2022-10-01T05:12:39.153Z,7.35
2022-10-01T05:15:06.146Z,7.36
2022-10-01T05:17:33.169Z,7.40
2022-10-01T05:19:59.905Z,7.41
2022-10-01T05:22:26.490Z,7.37
2022-10-01T05:24:53.514Z,7.49
2022-10-01T05:27:20.023Z,7.76
2022-10-01T05:29:46.889Z,7.91
2022-10-01T05:32:13.738Z,7.91
2022-10-01T05:34:40.506Z,8.11
2022-10-01T05:37:07.143Z,8.09
2022-10-01T05:39:33.923Z,8.16
2022-10-01T05:42:06.369Z,8.19
2022-10-01T05:44:38.189Z,8.22
2022-10-01T05:47:06.466Z,8.29
2022-10-01T05:49:33.424Z,8.41
2022-10-01T05:52:01.218Z,8.38
2022-10-01T05:54:29.581Z,8.46
2022-10-01T05:56:57.156Z,8.52
2022-10-01T05:59:28.446Z,8.59
2022-10-01T06:01:57.726Z,8.60
2022-10-01T06:04:24.320Z,8.61
2022-10-01T06:06:50.851Z,8.67
2022-10-01T06:09:17.427Z,8.71
2022-10-01T06:11:43.923Z,8.72
2022-10-01T06:14:10.638Z,8.79
2022-10-01T06:16:37.295Z,8.97
2022-10-01T06:19:04.411Z,9.04
2022-10-01T06:21:31.851Z,9.16
2022-10-01T06:23:58.804Z,9.34
2022-10-01T06:26:25.355Z,9.57
2022-10-01T06:28:52.825Z,9.82
2022-10-01T06:31:19.836Z,10.01
2022-10-01T06:33:46.508Z,10.25
2022-10-01T06:36:13.091Z,10.30
2022-10-01T06:38:39.684Z,10.34
2022-10-01T06:41:06.235Z,10.40
2022-10-01T06:43:33.715Z,10.46
2022-10-01T06:46:05.140Z,10.31
2022-10-01T06:48:32.445Z,10.37
2022-10-01T06:50:59.544Z,10.25
2022-10-01T06:53:27.598Z,10.49
2022-10-01T06:55:54.481Z,10.58
2022-10-01T06:58:23.077Z,10.49
2022-10-01T07:00:50.310Z,10.49
2022-10-01T07:03:21.457Z,10.61
2022-10-01T07:05:50.375Z,10.74
2022-10-01T07:08:17.899Z,10.87
2022-10-01T07:10:45.753Z,11.18
2022-10-01T07:13:16.151Z,11.61
2022-10-01T07:15:42.939Z,12.16
2022-10-01T07:18:09.859Z,12.80
2022-10-01T07:20:40.124Z,14.45
2022-10-01T07:23:14.541Z,17.13
2022-10-01T07:25:42.052Z,20.59
2022-10-01T07:28:16.303Z,22.94
2022-10-01T07:31:07.562Z,24.76
2022-10-01T07:33:34.207Z,26.66
2022-10-01T07:36:03.253Z,27.67
2022-10-01T07:38:30.085Z,28.86
2022-10-01T07:40:59.125Z,29.25
2022-10-01T07:43:25.852Z,30.63
2022-10-01T07:45:55.286Z,29.92
2022-10-01T07:48:22.075Z,29.40
2022-10-01T07:50:49.658Z,29.95
2022-10-01T07:53:17.146Z,29.55
2022-10-01T07:55:44.813Z,28.86
2022-10-01T07:58:12.044Z,29.69
2022-10-01T08:00:39.271Z,29.82
2022-10-01T08:03:06.053Z,26.74
2022-10-01T08:05:34.753Z,26.72
2022-10-01T08:08:06.173Z,26.27
2022-10-01T08:10:36.937Z,25.84
2022-10-01T08:13:14.549Z,27.12
2022-10-01T08:15:46.254Z,27.97
2022-10-01T08:18:13.215Z,27.28
2022-10-01T08:20:40.106Z,26.35
2022-10-01T08:23:11.615Z,25.67
2022-10-01T08:25:40.477Z,26.06
2022-10-01T08:28:09.010Z,26.18
2022-10-01T08:30:37.862Z,24.54
2022-10-01T08:33:05.657Z,24.46
2022-10-01T08:35:32.269Z,21.97
2022-10-01T08:38:04.303Z,20.05
2022-10-01T08:40:37.166Z,19.58
2022-10-01T08:43:07.540Z,18.68
2022-10-01T08:45:46.844Z,17.67
2022-10-01T08:48:56.855Z,16.71
2022-10-01T08:51:33.011Z,15.87
2022-10-01T08:54:32.394Z,15.14
2022-10-01T08:57:02.381Z,15.03
2022-10-01T08:59:35.520Z,15.01
2022-10-01T09:02:04.641Z,14.78
2022-10-01T09:04:31.344Z,14.28
2022-10-01T09:07:23.772Z,14.01
2022-10-01T09:10:00.721Z,14.11
2022-10-01T09:12:54.064Z,13.78
2022-10-01T09:15:43.364Z,13.56
2022-10-01T09:18:25.862Z,13.50
2022-10-01T09:20:55.170Z,13.55
2022-10-01T09:23:32.408Z,13.32
2022-10-01T09:25:59.688Z,13.15
2022-10-01T09:28:33.990Z,12.93
2022-10-01T09:31:12.442Z,12.63
2022-10-01T09:33:42.626Z,12.42
2022-10-01T09:36:21.963Z,12.35
2022-10-01T09:38:58.050Z,12.46
2022-10-01T09:41:24.836Z,12.51
2022-10-01T09:43:51.453Z,12.41
2022-10-01T09:46:18.223Z,12.36
2022-10-01T09:49:03.255Z,12.36
2022-10-01T09:51:50.482Z,12.35
2022-10-01T09:54:22.491Z,12.41
2022-10-01T09:56:55.462Z,12.37
2022-10-01T09:59:24.843Z,12.42
2022-10-01T10:01:59.128Z,12.54
2022-10-01T10:04:26.198Z,12.79
2022-10-01T10:07:00.301Z,13.17
2022-10-01T10:09:29.858Z,13.52
2022-10-01T10:12:00.820Z,13.75
2022-10-01T10:14:31.400Z,13.84
2022-10-01T10:16:59.168Z,13.69
2022-10-01T10:19:28.562Z,13.35
2022-10-01T10:22:00.774Z,13.06
2022-10-01T10:24:35.059Z,12.89
2022-10-01T10:27:05.258Z,12.94
2022-10-01T10:29:33.868Z,13.02
2022-10-01T10:32:10.581Z,12.90
2022-10-01T10:34:41.257Z,12.95
2022-10-01T10:37:18.932Z,12.63
2022-10-01T10:39:48.429Z,12.70
2022-10-01T10:42:15.824Z,12.59
2022-10-01T10:44:44.214Z,12.42
2022-10-01T10:47:14.724Z,12.28
2022-10-01T10:49:44.020Z,12.30
2022-10-01T10:52:25.327Z,12.40
2022-10-01T10:54:53.818Z,12.40
2022-10-01T10:57:23.179Z,12.40
2022-10-01T10:59:56.473Z,12.33
2022-10-01T11:02:26.848Z,12.24
2022-10-01T11:04:53.946Z,12.16
2022-10-01T11:07:22.023Z,12.08
2022-10-01T11:10:13.430Z,12.27
2022-10-01T11:13:06.771Z,12.43
2022-10-01T11:15:39.236Z,12.58
2022-10-01T11:18:12.372Z,12.63
2022-10-01T11:20:44.026Z,12.71
2022-10-01T11:23:27.664Z,12.71
2022-10-01T11:26:16.640Z,12.60
2022-10-01T11:28:54.900Z,12.77
2022-10-01T11:31:48.779Z,12.98
2022-10-01T11:34:37.811Z,13.34
2022-10-01T11:37:41.752Z,13.87
2022-10-01T11:40:49.393Z,14.36
2022-10-01T11:43:29.749Z,14.44
2022-10-01T11:46:00.454Z,14.60
2022-10-01T11:48:33.424Z,14.61
2022-10-01T11:51:07.875Z,14.52
2022-10-01T11:53:39.882Z,14.18
2022-10-01T11:56:36.484Z,14.15
2022-10-01T11:59:09.956Z,14.44
2022-10-01T12:01:48.124Z,14.55
2022-10-01T12:04:22.595Z,14.59
2022-10-01T12:06:53.272Z,14.50
2022-10-01T12:09:22.503Z,14.66
2022-10-01T12:12:01.460Z,14.31
2022-10-01T12:14:33.086Z,14.32
2022-10-01T12:17:09.878Z,14.41
2022-10-01T12:19:40.029Z,14.44
2022-10-01T12:22:21.273Z,14.50
2022-10-01T12:24:50.346Z,14.57
2022-10-01T12:27:29.288Z,14.73
2022-10-01T12:30:21.689Z,14.64
2022-10-01T12:33:05.237Z,14.53
2022-10-01T12:35:41.432Z,14.45
2022-10-01T12:38:49.888Z,14.52
2022-10-01T12:41:44.489Z,14.34
2022-10-01T12:44:24.271Z,14.18
2022-10-01T12:47:12.932Z,14.16
2022-10-01T12:50:03.734Z,14.35
2022-10-01T12:52:48.889Z,14.46
2022-10-01T12:55:44.598Z,14.50
2022-10-01T12:58:38.507Z,14.49
2022-10-01T13:01:18.874Z,14.31
2022-10-01T13:04:11.049Z,14.27
2022-10-01T13:06:55.937Z,14.23
2022-10-01T13:09:35.271Z,14.20
2022-10-01T13:12:13.910Z,13.99
2022-10-01T13:14:44.350Z,13.83
2022-10-01T13:17:30.379Z,13.94
2022-10-01T13:20:13.341Z,13.91
2022-10-01T13:22:58.204Z,13.94
2022-10-01T13:25:33.861Z,13.98
2022-10-01T13:28:11.859Z,13.94
2022-10-01T13:31:00.136Z,13.92
2022-10-01T13:33:29.695Z,14.09
2022-10-01T13:36:01.388Z,14.17
2022-10-01T13:38:38.711Z,14.01
2022-10-01T13:41:15.832Z,13.97
2022-10-01T13:43:47.983Z,13.90
2022-10-01T13:46:14.525Z,13.88
2022-10-01T13:48:48.353Z,13.87
2022-10-01T13:51:15.696Z,13.81
2022-10-01T13:53:42.043Z,13.78
2022-10-01T13:56:12.241Z,13.79
2022-10-01T13:58:43.450Z,13.73
2022-10-01T14:01:18.887Z,13.67
2022-10-01T14:04:17.059Z,13.58
2022-10-01T14:07:17.395Z,13.37
2022-10-01T14:09:50.072Z,13.45
2022-10-01T14:12:50.892Z,13.40
2022-10-01T14:15:38.568Z,13.37
2022-10-01T14:18:16.121Z,13.47
2022-10-01T14:20:58.918Z,13.40
2022-10-01T14:23:36.121Z,13.42
2022-10-01T14:26:27.433Z,13.34
2022-10-01T14:29:05.121Z,13.21
2022-10-01T14:31:56.838Z,13.22
2022-10-01T14:34:41.456Z,13.27
2022-10-01T14:37:16.829Z,13.23
2022-10-01T14:39:43.825Z,13.00
2022-10-01T14:42:16.983Z,13.01
2022-10-01T14:44:46.263Z,13.08
2022-10-01T14:47:19.986Z,12.97
2022-10-01T14:49:47.458Z,13.05
2022-10-01T14:52:19.924Z,13.10
2022-10-01T14:54:59.263Z,13.16
2022-10-01T14:57:40.006Z,12.92
2022-10-01T15:00:16.029Z,12.92
2022-10-01T15:02:49.257Z,12.88
2022-10-01T15:05:35.395Z,13.04
2022-10-01T15:08:20.580Z,13.02
2022-10-01T15:10:53.092Z,12.86
2022-10-01T15:13:27.106Z,12.76
2022-10-01T15:15:54.862Z,12.68
2022-10-01T15:18:22.342Z,12.76
2022-10-01T15:20:58.133Z,12.61
2022-10-01T15:23:25.477Z,12.53
2022-10-01T15:25:53.751Z,12.53
2022-10-01T15:28:28.045Z,12.47
2022-10-01T15:30:54.842Z,12.37
2022-10-01T15:33:27.796Z,12.32
2022-10-01T15:35:57.030Z,12.27
2022-10-01T15:38:23.945Z,12.24
2022-10-01T15:41:04.994Z,12.13
2022-10-01T15:43:42.193Z,12.14
2022-10-01T15:46:11.468Z,12.18
2022-10-01T15:48:38.264Z,12.21
2022-10-01T15:51:16.141Z,12.29
2022-10-01T15:53:43.013Z,12.15
2022-10-01T15:56:12.198Z,12.19
2022-10-01T15:58:45.185Z,12.23
2022-10-01T16:01:22.192Z,12.09
2022-10-01T16:04:08.417Z,12.02
2022-10-01T16:06:41.041Z,12.05
2022-10-01T16:09:19.052Z,11.95
2022-10-01T16:11:57.434Z,11.98
2022-10-01T16:14:30.776Z,11.91
2022-10-01T16:17:17.671Z,11.84
2022-10-01T16:19:45.254Z,11.83
2022-10-01T16:22:18.764Z,11.82
2022-10-01T16:24:52.320Z,11.83
2022-10-01T16:27:21.743Z,11.70
2022-10-01T16:30:05.096Z,11.73
2022-10-01T16:32:32.239Z,11.65
2022-10-01T16:35:18.300Z,11.73
2022-10-01T16:37:45.666Z,11.63
2022-10-01T16:40:16.244Z,11.55
2022-10-01T16:42:43.848Z,11.54
2022-10-01T16:45:24.726Z,11.58
2022-10-01T16:47:52.722Z,11.55
2022-10-01T16:50:21.556Z,11.67
2022-10-01T16:52:48.278Z,11.70
2022-10-01T16:55:23.282Z,11.72
2022-10-01T16:57:50.274Z,11.61
2022-10-01T17:00:18.489Z,11.59
2022-10-01T17:02:45.304Z,11.56
2022-10-01T17:05:30.270Z,11.51
2022-10-01T17:08:04.511Z,11.43
2022-10-01T17:10:35.977Z,11.54
2022-10-01T17:13:04.610Z,11.49
2022-10-01T17:15:31.221Z,11.45
2022-10-01T17:17:58.970Z,11.48
2022-10-01T17:20:28.407Z,11.49
2022-10-01T17:22:55.709Z,11.39
2022-10-01T17:25:25.365Z,11.51
2022-10-01T17:27:52.135Z,11.47
2022-10-01T17:30:19.321Z,11.49
2022-10-01T17:32:46.713Z,11.47
2022-10-01T17:35:14.616Z,11.52
2022-10-01T17:37:41.758Z,11.59
2022-10-01T17:40:09.129Z,11.57
2022-10-01T17:42:36.007Z,11.50
2022-10-01T17:45:07.955Z,11.31
2022-10-01T17:47:34.598Z,11.25
2022-10-01T17:50:01.160Z,11.29
2022-10-01T17:52:27.868Z,11.35
2022-10-01T17:54:54.758Z,11.30
2022-10-01T17:57:21.553Z,11.30
2022-10-01T17:59:48.400Z,11.39
2022-10-01T18:02:39.728Z,11.41
2022-10-01T18:05:05.131Z,11.49
2022-10-01T18:07:31.856Z,11.44
2022-10-01T18:09:58.957Z,11.38
2022-10-01T18:12:25.613Z,11.39
2022-10-01T18:14:52.499Z,11.30
2022-10-01T18:17:19.156Z,11.20
2022-10-01T18:19:53.226Z,11.18
2022-10-01T18:22:20.611Z,11.16
2022-10-01T18:24:47.647Z,11.09
2022-10-01T18:27:14.221Z,11.15
2022-10-01T18:29:40.928Z,11.02
2022-10-01T18:32:24.260Z,11.11
2022-10-01T18:35:03.285Z,11.03
2022-10-01T18:37:40.001Z,10.94
2022-10-01T18:40:13.380Z,10.95
2022-10-01T18:43:00.101Z,11.07
2022-10-01T18:45:43.191Z,11.03
2022-10-01T18:48:40.456Z,10.98
2022-10-01T18:51:51.136Z,10.93
2022-10-01T18:54:37.608Z,11.10
2022-10-01T18:57:39.715Z,11.07
2022-10-01T19:00:23.546Z,11.04
2022-10-01T19:03:19.358Z,10.96
2022-10-01T19:06:10.741Z,10.98
2022-10-01T19:09:04.814Z,10.96
2022-10-01T19:11:51.512Z,10.80
2022-10-01T19:14:31.044Z,10.75
2022-10-01T19:17:34.625Z,10.74
2022-10-01T19:20:06.821Z,10.63
2022-10-01T19:22:53.069Z,10.67
2022-10-01T19:25:27.784Z,10.75
2022-10-01T19:28:10.797Z,10.72
2022-10-01T19:31:15.224Z,10.73
2022-10-01T19:33:46.745Z,10.81
2022-10-01T19:36:33.649Z,10.76
2022-10-01T19:39:04.536Z,10.80
2022-10-01T19:41:47.604Z,10.76
2022-10-01T19:44:19.346Z,10.73
2022-10-01T19:46:47.483Z,10.74
2022-10-01T19:49:40.348Z,10.75
2022-10-01T19:52:18.188Z,10.81
2022-10-01T19:54:52.720Z,10.74
2022-10-01T19:57:24.282Z,10.73
2022-10-01T19:59:52.740Z,10.72
2022-10-01T20:02:33.102Z,10.84
2022-10-01T20:05:06.050Z,10.96
2022-10-01T20:07:47.513Z,10.96
2022-10-01T20:10:25.557Z,10.99
2022-10-01T20:13:10.124Z,10.90
2022-10-01T20:15:58.397Z,10.92
2022-10-01T20:18:58.822Z,10.84
2022-10-01T20:21:46.624Z,10.83
2022-10-01T20:24:34.905Z,10.77
2022-10-01T20:27:15.155Z,10.98
2022-10-01T20:30:06.673Z,10.93
2022-10-01T20:32:39.870Z,10.95
2022-10-01T20:35:30.184Z,10.92
2022-10-01T20:38:15.245Z,10.80
2022-10-01T20:40:49.723Z,10.87
2022-10-01T20:43:22.479Z,10.84
2022-10-01T20:45:51.934Z,10.82
2022-10-01T20:48:35.515Z,10.91
2022-10-01T20:51:10.656Z,10.85
2022-10-01T20:53:43.375Z,10.84
2022-10-01T20:56:15.489Z,10.81
2022-10-01T20:58:47.451Z,10.83
2022-10-01T21:01:17.903Z,10.84
2022-10-01T21:03:46.970Z,10.94
2022-10-01T21:06:17.212Z,10.82
2022-10-01T21:08:53.615Z,10.75
2022-10-01T21:11:30.668Z,10.78
2022-10-01T21:14:07.031Z,10.64
2022-10-01T21:16:46.210Z,10.54
2022-10-01T21:19:22.437Z,10.51
2022-10-01T21:22:07.652Z,10.42
2022-10-01T21:24:52.072Z,10.35
2022-10-01T21:27:58.102Z,10.28
2022-10-01T21:30:24.797Z,10.18
2022-10-01T21:33:04.904Z,10.15
2022-10-01T21:35:44.483Z,10.18
2022-10-01T21:38:19.315Z,10.13
2022-10-01T21:41:01.677Z,10.01
2022-10-01T21:43:56.379Z,10.00
2022-10-01T21:46:42.343Z,10.04
2022-10-01T21:49:31.745Z,10.01
2022-10-01T21:52:21.727Z,9.97
2022-10-01T21:54:59.017Z,9.92
2022-10-01T21:57:35.942Z,9.85
2022-10-01T22:00:16.515Z,9.85
2022-10-01T22:03:00.667Z,9.79
2022-10-01T22:05:34.372Z,9.78
2022-10-01T22:08:20.652Z,9.75
2022-10-01T22:10:50.681Z,9.71
2022-10-01T22:13:27.519Z,9.63
2022-10-01T22:15:56.980Z,9.60
2022-10-01T22:18:36.068Z,9.74
2022-10-01T22:21:07.502Z,9.60
2022-10-01T22:23:37.483Z,9.60
2022-10-01T22:26:11.777Z,9.54
2022-10-01T22:28:39.728Z,9.45
2022-10-01T22:31:11.371Z,9.50
2022-10-01T22:33:42.310Z,9.47
2022-10-01T22:36:15.786Z,9.44
2022-10-01T22:38:46.044Z,9.36
2022-10-01T22:41:17.681Z,9.37
2022-10-01T22:43:45.706Z,9.34
2022-10-01T22:46:40.122Z,9.26
2022-10-01T22:49:36.075Z,9.25
2022-10-01T22:52:10.025Z,9.22
2022-10-01T22:54:56.841Z,9.30
2022-10-01T22:58:06.291Z,9.22
2022-10-01T23:00:51.257Z,9.34
2022-10-01T23:03:55.707Z,9.21
2022-10-01T23:06:24.969Z,9.27
2022-10-01T23:09:11.643Z,9.22
2022-10-01T23:12:03.386Z,9.36
2022-10-01T23:14:32.619Z,9.35
2022-10-01T23:17:07.185Z,9.36
2022-10-01T23:20:14.904Z,9.37
2022-10-01T23:22:44.889Z,9.29
2022-10-01T23:25:56.122Z,9.32
2022-10-01T23:28:48.848Z,9.30
2022-10-01T23:31:33.469Z,9.30
2022-10-01T23:34:37.606Z,9.32
2022-10-01T23:37:34.874Z,9.37
2022-10-01T23:40:06.939Z,9.32
2022-10-01T23:43:04.383Z,9.27
2022-10-01T23:45:36.269Z,9.23
2022-10-01T23:48:13.810Z,9.26
2022-10-01T23:50:45.829Z,9.27
2022-10-01T23:53:20.328Z,9.23
2022-10-01T23:56:11.191Z,9.18
2022-10-01T23:58:45.464Z,9.28
